Corona, CA

1:08 PM PDT on September 17, 2014 (GMT -0700)
CA_Hydro SILVERADO ORANGE CA | Change Station
CLOSE
Current Station
Personal Weather Station
Location: Corona, CA
Elevation: 5646 ft
Nearby Weather Stations

Elev 5646 ft 33.71 °N, 117.53 °W | Updated 38 minutes ago

Clear
Clear
82.0 °F
Feels Like 82.0 °F
N
-
Wind Variable Wind from North

Today
High -- | Low -- °F
--% Chance of Precip.
Yesterday
High -- | Low -- °F
Precip. -- in
6:34 AM 6:53 PM
Waning Crescent, 33% visible
Pressure 29.70 in
Visibility 10.0 miles
Clouds Clear
Dew Point Not available.
Humidity Not available.
Rainfall -999.00 in
Snow Depth 0 in , 0 in , 0 in
UV 9 out of 12
Pollen 6.90 out of 12
Ozone Good
PM2.5 Moderate
Flu Activity Not available.
METAR KAJO 171956Z AUTO 28011G17KT 10SM CLR 37/17 A2974 RMK AO2 T03720172 SLP058 $

More Conditions Fewer Conditions

Pressure 29.70 in
Visibility 10.0 miles
Clouds Clear
Dew Point Not available.
Humidity Not available.
Rainfall -999.00 in
Snow Depth 0 in , 0 in , 0 in
UV 9 out of 12
Pollen 6.90 out of 12
Ozone Good
PM2.5 Moderate
Flu Activity Not available.
METAR KAJO 171956Z AUTO 28011G17KT 10SM CLR 37/17 A2974 RMK AO2 T03720172 SLP058 $

More Conditions Fewer Conditions

10-Day Weather Forecast

Almanac

Astronomy

Sep. 17, 2014 Rise Set
Actual Time 6:34 AM PDT 6:53 PM PDT
Civil Twilight 6:09 AM PDT 7:18 PM PDT
Nautical Twilight 5:40 AM PDT 7:47 PM PDT
Astronomical Twilight 5:11 AM PDT 8:17 PM PDT
Moon 12:50 AM PDT 2:55 PM PDT
Length of Visible Light 13h 08m
Length of Day
12h 18m
Tomorrow will be 2m 5s shorter.
Waning Crescent, 33% of the Moon is Illuminated
Today
Waning Crescent
Sep 24
New
Oct 1
First Quarter
Oct 8
Full
Oct 15
Last Quarter

Today's Extremes

State Highs State Lows

Community

WunderPhotos

Upload Photos

1,754,154 photos uploaded!

Nearby

Air Quality

  Air Quality AQ Index Pollutant
Yesterday Moderate
OZONE
Yesterday Moderate
PM10
Current Moderate
PM2.5
Current Good
OZONE
Thursday Moderate
OZONE
Thursday Good
PM10
Thursday Good
CO
Thursday Good
NO2

Snow Depth

Station Depth Elevation
Summit Meadow 0 in 9122 ft
Leavitt Meadows 0 in 7200 ft
CSS Lab 0 in 6900 ft
Adin Mountain 1 in 6200 ft

Earthquake Activity

City Distance Mag. Time & Date
La Quinta, California 63 miles 2.7 8:59 PM PDT
2014-09-15
Minimum magnitude displayed is 2.5.

Coastal Water Temperatures

Place Temperature
Santa Monica Pier 72.0 °F
Los Angeles, CA 69.1 °F
La Jolla, CA 69.1 °F

Nearby Weather Stations